createdAt,value
2022-11-28T00:00:50.244Z,33
2022-11-28T00:01:57.652Z,35.7
2022-11-28T00:03:04.676Z,33.2
2022-11-28T00:04:11.688Z,34.5
2022-11-28T00:05:18.879Z,32.3
2022-11-28T00:06:26.077Z,33.2
2022-11-28T00:07:33.430Z,34.6
2022-11-28T00:08:40.830Z,31.7
2022-11-28T00:09:47.581Z,32.4
2022-11-28T00:10:54.433Z,33.4
2022-11-28T00:12:01.707Z,32
2022-11-28T00:13:08.914Z,33.9
2022-11-28T00:14:15.993Z,32.8
2022-11-28T00:15:23.081Z,31.9
2022-11-28T00:16:30.424Z,33.6
2022-11-28T00:17:37.460Z,34.9
2022-11-28T00:18:45.548Z,33.8
2022-11-28T00:19:55.608Z,33.4
2022-11-28T00:21:02.770Z,32.7
2022-11-28T00:22:10.005Z,33.2
2022-11-28T00:23:17.108Z,33.4
2022-11-28T00:24:24.302Z,33
2022-11-28T00:25:31.325Z,31.1
2022-11-28T00:26:38.575Z,33.7
2022-11-28T00:27:45.862Z,32.8
2022-11-28T00:28:53.232Z,30.3
2022-11-28T00:30:00.271Z,32.3
2022-11-28T00:31:07.460Z,31.8
2022-11-28T00:32:17.258Z,32
2022-11-28T00:33:24.229Z,30.5
2022-11-28T00:34:31.436Z,33.1
2022-11-28T00:35:38.688Z,32.1
2022-11-28T00:36:45.800Z,32.8
2022-11-28T00:37:52.708Z,30.7
2022-11-28T00:38:59.856Z,32.3
2022-11-28T00:40:07.124Z,32.7
2022-11-28T00:41:14.363Z,31.8
2022-11-28T00:42:21.437Z,30.8
2022-11-28T00:43:28.552Z,31.5
2022-11-28T00:44:35.689Z,31.4
2022-11-28T00:45:42.826Z,29.9
2022-11-28T00:46:49.830Z,32.2
2022-11-28T00:47:57.124Z,32.8
2022-11-28T00:49:04.180Z,34
2022-11-28T00:50:11.248Z,36.7
2022-11-28T00:51:18.443Z,39.9
2022-11-28T00:52:25.588Z,36.6
2022-11-28T00:53:32.825Z,34.1
2022-11-28T00:54:40.428Z,35.1
2022-11-28T00:55:47.222Z,34.9
2022-11-28T00:56:54.208Z,34.6
2022-11-28T00:58:01.288Z,35.1
2022-11-28T00:59:08.248Z,33.9
2022-11-28T01:00:15.233Z,35
2022-11-28T01:01:22.770Z,35
2022-11-28T01:02:29.651Z,36.1
2022-11-28T01:03:36.576Z,34.3
2022-11-28T01:04:43.974Z,36.5
2022-11-28T01:05:50.868Z,36.1
2022-11-28T01:06:58.169Z,36
2022-11-28T01:08:05.177Z,35.7
2022-11-28T01:09:12.224Z,35.1
2022-11-28T01:10:19.480Z,35.2
2022-11-28T01:11:26.576Z,36.5
2022-11-28T01:12:33.677Z,37.1
2022-11-28T01:13:40.865Z,37
2022-11-28T01:14:47.928Z,36.8
2022-11-28T01:15:55.209Z,35.9
2022-11-28T01:17:02.281Z,38.3
2022-11-28T01:18:09.424Z,37
2022-11-28T01:19:16.581Z,35.7
2022-11-28T01:20:23.632Z,36.3
2022-11-28T01:21:30.624Z,38.2
2022-11-28T01:22:37.592Z,37.6
2022-11-28T01:23:44.589Z,37.7
2022-11-28T01:24:51.619Z,37.4
2022-11-28T01:25:58.622Z,36.2
2022-11-28T01:27:05.660Z,38.1
2022-11-28T01:28:12.539Z,37
2022-11-28T01:29:19.524Z,37
2022-11-28T01:30:26.736Z,38.7
2022-11-28T01:31:33.973Z,37.8
2022-11-28T01:32:40.983Z,35.9
2022-11-28T01:33:48.245Z,36.2
2022-11-28T01:34:56.156Z,35.3
2022-11-28T01:36:03.380Z,35.8
2022-11-28T01:37:10.579Z,34.6
2022-11-28T01:38:17.682Z,35.7
2022-11-28T01:39:24.775Z,35.9
2022-11-28T01:40:32.037Z,34.8
2022-11-28T01:41:39.145Z,34
2022-11-28T01:42:46.357Z,35
2022-11-28T01:43:53.300Z,35.7
2022-11-28T01:45:05.551Z,35.7
2022-11-28T01:46:17.830Z,35.7
2022-11-28T01:47:24.994Z,35.6
2022-11-28T01:48:32.396Z,36.3
2022-11-28T01:49:39.415Z,32.7
2022-11-28T01:50:46.434Z,35.7
2022-11-28T01:51:53.438Z,34.2
2022-11-28T01:53:00.748Z,36.2
2022-11-28T01:54:07.782Z,35
2022-11-28T01:55:15.134Z,35.2
2022-11-28T01:56:22.060Z,34
2022-11-28T01:57:29.217Z,35
2022-11-28T01:58:36.499Z,35.4
2022-11-28T01:59:43.505Z,36
2022-11-28T02:00:50.878Z,35.7
2022-11-28T02:01:57.786Z,35.6
2022-11-28T02:03:04.876Z,35.7
2022-11-28T02:04:13.043Z,35.7
2022-11-28T02:05:20.175Z,36.1
2022-11-28T02:06:27.385Z,35.5
2022-11-28T02:07:34.621Z,36.2
2022-11-28T02:08:41.692Z,36.3
2022-11-28T02:09:48.832Z,34
2022-11-28T02:10:55.819Z,34.6
2022-11-28T02:12:13.451Z,35.7
2022-11-28T02:13:25.952Z,34.2
2022-11-28T02:14:38.326Z,36.2
2022-11-28T02:15:45.371Z,34.5
2022-11-28T02:16:57.382Z,35.8
2022-11-28T02:18:12.740Z,34.5
2022-11-28T02:19:25.123Z,36.6
2022-11-28T02:20:42.311Z,34.5
2022-11-28T02:21:51.828Z,34.6
2022-11-28T02:23:02.035Z,36.4
2022-11-28T02:24:19.428Z,36.4
2022-11-28T02:25:36.799Z,34.9
2022-11-28T02:26:51.963Z,36.1
2022-11-28T02:28:09.195Z,35.5
2022-11-28T02:29:16.603Z,36.6
2022-11-28T02:30:23.662Z,35.3
2022-11-28T02:31:33.361Z,36.4
2022-11-28T02:32:50.871Z,36.7
2022-11-28T02:34:00.769Z,35
2022-11-28T02:35:07.710Z,36.9
2022-11-28T02:36:23.043Z,36
2022-11-28T02:37:38.473Z,35.2
2022-11-28T02:38:56.051Z,34.1
2022-11-28T02:40:03.145Z,36
2022-11-28T02:41:10.216Z,34.9
2022-11-28T02:42:22.487Z,36.2
2022-11-28T02:43:32.428Z,34.9
2022-11-28T02:44:39.514Z,38.2
2022-11-28T02:45:46.531Z,35.4
2022-11-28T02:47:01.356Z,36.5
2022-11-28T02:48:18.583Z,36.5
2022-11-28T02:49:30.835Z,36.7
2022-11-28T02:50:40.371Z,35.5
2022-11-28T02:51:57.783Z,36.5
2022-11-28T02:53:04.827Z,36.4
2022-11-28T02:54:11.967Z,34.9
2022-11-28T02:55:19.008Z,36.7
2022-11-28T02:56:26.260Z,35.6
2022-11-28T02:57:33.251Z,36.4
2022-11-28T02:58:40.307Z,37.9
2022-11-28T02:59:47.411Z,35.7
2022-11-28T03:00:54.677Z,35.9
2022-11-28T03:02:01.794Z,36.3
2022-11-28T03:03:08.687Z,36.7
2022-11-28T03:04:26.242Z,34
2022-11-28T03:05:43.679Z,37.4
2022-11-28T03:07:00.994Z,35.8
2022-11-28T03:08:15.792Z,35.6
2022-11-28T03:09:22.727Z,36.4
2022-11-28T03:10:29.675Z,36.2
2022-11-28T03:11:47.179Z,35.5
2022-11-28T03:12:59.970Z,35.6
2022-11-28T03:14:15.263Z,36.5
2022-11-28T03:15:24.899Z,36.6
2022-11-28T03:16:34.918Z,34.8
2022-11-28T03:17:49.583Z,37.2
2022-11-28T03:18:56.612Z,34.4
2022-11-28T03:20:08.812Z,35.1
2022-11-28T03:21:21.179Z,34.4
2022-11-28T03:22:33.355Z,36.7
2022-11-28T03:23:48.312Z,35.7
2022-11-28T03:24:55.867Z,33
2022-11-28T03:26:05.788Z,35.8
2022-11-28T03:27:23.187Z,34.5
2022-11-28T03:28:38.152Z,36
2022-11-28T03:29:52.732Z,33.2
2022-11-28T03:30:59.771Z,35.4
2022-11-28T03:32:06.954Z,34.8
2022-11-28T03:33:13.799Z,33.4
2022-11-28T03:34:20.960Z,35.1
2022-11-28T03:35:27.939Z,35.7
2022-11-28T03:36:34.983Z,33.7
2022-11-28T03:37:41.899Z,34.5
2022-11-28T03:38:48.939Z,34.3
2022-11-28T03:40:01.080Z,35
2022-11-28T03:41:11.047Z,34.5
2022-11-28T03:42:18.079Z,33.3
2022-11-28T03:43:25.124Z,33.7
2022-11-28T03:44:32.107Z,34.2
2022-11-28T03:45:39.019Z,33.9
2022-11-28T03:46:49.126Z,33.8
2022-11-28T03:47:56.099Z,35.1
2022-11-28T03:49:05.734Z,34.4
2022-11-28T03:50:12.747Z,33.8
2022-11-28T03:51:22.751Z,34.4
2022-11-28T03:52:35.435Z,34.7
2022-11-28T03:53:42.450Z,34.5
2022-11-28T03:54:52.675Z,32.1
2022-11-28T03:56:02.567Z,36.1
2022-11-28T03:57:14.754Z,34.1
2022-11-28T03:58:32.081Z,33.6
2022-11-28T03:59:46.954Z,34.9
2022-11-28T04:00:53.926Z,35.6
2022-11-28T04:02:00.947Z,35.2
2022-11-28T04:03:13.315Z,33.3
2022-11-28T04:04:20.248Z,34.2
2022-11-28T04:05:32.391Z,34.6
2022-11-28T04:06:44.611Z,34.4
2022-11-28T04:07:56.831Z,34.9
2022-11-28T04:09:14.133Z,34
2022-11-28T04:10:16.015Z,35.1
2022-11-28T04:11:31.060Z,36.3
2022-11-28T04:12:41.099Z,34.6
2022-11-28T04:13:53.227Z,36.5
2022-11-28T04:15:08.602Z,32.9
2022-11-28T04:16:21.626Z,33.7
2022-11-28T04:17:33.759Z,34.9
2022-11-28T04:18:40.920Z,33.1
2022-11-28T04:19:55.895Z,31.9
2022-11-28T04:21:02.848Z,34.9
2022-11-28T04:22:13.075Z,33.2
2022-11-28T04:23:20.127Z,34.4
2022-11-28T04:24:27.271Z,32.5
2022-11-28T04:25:40.266Z,34
2022-11-28T04:26:47.220Z,32.6
2022-11-28T04:27:54.224Z,33
2022-11-28T04:29:01.176Z,34.2
2022-11-28T04:30:08.103Z,34.6
2022-11-28T04:31:15.290Z,33.5
2022-11-28T04:32:22.423Z,31.2
2022-11-28T04:33:29.320Z,33.6
2022-11-28T04:34:37.375Z,33.2
2022-11-28T04:35:44.267Z,32.1
2022-11-28T04:36:51.234Z,32.4
2022-11-28T04:37:58.285Z,32.3
2022-11-28T04:39:05.343Z,31
2022-11-28T04:40:12.399Z,30
2022-11-28T04:41:19.411Z,32.4
2022-11-28T04:42:26.619Z,31
2022-11-28T04:43:33.665Z,32.5
2022-11-28T04:44:41.064Z,30.8
2022-11-28T04:45:50.316Z,29
2022-11-28T04:46:57.331Z,29.6
2022-11-28T04:48:04.310Z,30.3
2022-11-28T04:49:11.307Z,31.1
2022-11-28T04:50:18.405Z,31.3
2022-11-28T04:51:25.371Z,31.5
2022-11-28T04:52:37.501Z,30.3
2022-11-28T04:53:52.495Z,31.2
2022-11-28T04:55:04.914Z,30.3
2022-11-28T04:56:22.272Z,30.2
2022-11-28T04:57:29.150Z,30.5
2022-11-28T04:58:36.953Z,31.3
2022-11-28T04:59:44.079Z,31.8
2022-11-28T05:00:51.053Z,31.6
2022-11-28T05:01:58.019Z,32.2
2022-11-28T05:03:04.967Z,32.4
2022-11-28T05:04:11.935Z,31.1
2022-11-28T05:05:19.131Z,32.4
2022-11-28T05:06:26.134Z,31.2
2022-11-28T05:07:33.052Z,31.8
2022-11-28T05:08:39.959Z,33.4
2022-11-28T05:09:46.959Z,31.8
2022-11-28T05:10:54.080Z,34
2022-11-28T05:12:01.061Z,32.5
2022-11-28T05:13:08.166Z,32.8
2022-11-28T05:14:15.159Z,32.7
2022-11-28T05:15:22.144Z,32.6
2022-11-28T05:16:29.282Z,33.1
2022-11-28T05:17:40.607Z,32.4
2022-11-28T05:18:43.406Z,32
2022-11-28T05:19:50.403Z,32.7
2022-11-28T05:20:57.379Z,31.6
2022-11-28T05:22:04.442Z,30.5
2022-11-28T05:23:11.355Z,32.3
2022-11-28T05:24:18.587Z,30.6
2022-11-28T05:25:25.524Z,32
2022-11-28T05:26:32.530Z,30.3
2022-11-28T05:27:39.558Z,31.5
2022-11-28T05:28:46.612Z,32.1
2022-11-28T05:29:53.632Z,30.7
2022-11-28T05:31:00.558Z,30.8
2022-11-28T05:32:07.599Z,30.7
2022-11-28T05:33:14.683Z,31.4
2022-11-28T05:34:21.639Z,31.1
2022-11-28T05:35:28.727Z,29.1
2022-11-28T05:36:36.537Z,30.4
2022-11-28T05:37:43.578Z,30.2
2022-11-28T05:38:50.447Z,28.9
2022-11-28T05:39:57.439Z,30.6
2022-11-28T05:41:04.491Z,30.2
2022-11-28T05:42:11.652Z,29.4
2022-11-28T05:43:18.594Z,30.4
2022-11-28T05:44:27.111Z,31.2
2022-11-28T05:45:32.573Z,30.1
2022-11-28T05:46:39.787Z,29.3
2022-11-28T05:47:46.814Z,30.1
2022-11-28T05:48:53.814Z,29.8
2022-11-28T05:50:00.867Z,29.5
2022-11-28T05:51:08.294Z,30
2022-11-28T05:52:15.242Z,30.5
2022-11-28T05:53:22.432Z,29.1
2022-11-28T05:54:29.459Z,30.6
2022-11-28T05:55:36.474Z,29.1
2022-11-28T05:56:43.425Z,29
2022-11-28T05:57:50.324Z,30.1
2022-11-28T05:58:57.308Z,29.8
2022-11-28T06:00:04.414Z,27.5
2022-11-28T06:01:11.468Z,30.8
2022-11-28T06:02:18.627Z,29.7
2022-11-28T06:03:25.818Z,30
2022-11-28T06:04:32.983Z,30.7
2022-11-28T06:05:43.012Z,30.9
2022-11-28T06:06:47.185Z,31.6
2022-11-28T06:07:54.227Z,30.5
2022-11-28T06:09:03.499Z,29.7
2022-11-28T06:10:10.619Z,31.7
2022-11-28T06:11:17.670Z,31.7
2022-11-28T06:12:25.022Z,31.2
2022-11-28T06:13:32.007Z,32.2
2022-11-28T06:14:39.074Z,30.3
2022-11-28T06:15:46.195Z,30.2
2022-11-28T06:16:53.340Z,31.2
2022-11-28T06:18:00.486Z,31.4
2022-11-28T06:19:07.778Z,32.4
2022-11-28T06:20:14.707Z,31.1
2022-11-28T06:21:21.826Z,31.4
2022-11-28T06:22:29.058Z,32.7
2022-11-28T06:23:36.150Z,33
2022-11-28T06:24:43.445Z,32
2022-11-28T06:25:50.471Z,30.2
2022-11-28T06:26:57.502Z,32.4
2022-11-28T06:28:04.644Z,30.4
2022-11-28T06:29:11.547Z,29.6
2022-11-28T06:30:18.526Z,31.6
2022-11-28T06:31:25.695Z,32.2
2022-11-28T06:32:32.939Z,30.8
2022-11-28T06:33:39.973Z,30.9
2022-11-28T06:34:46.880Z,31.7
2022-11-28T06:35:53.803Z,32.1
2022-11-28T06:37:03.498Z,35.9
2022-11-28T06:38:14.180Z,32.8
2022-11-28T06:39:17.433Z,32
2022-11-28T06:40:24.623Z,32.1
2022-11-28T06:41:31.410Z,38.6
2022-11-28T06:42:38.344Z,38.2
2022-11-28T06:43:45.362Z,37.9
2022-11-28T06:44:52.431Z,35.3
2022-11-28T06:45:59.582Z,32.9
2022-11-28T06:47:06.538Z,31.4
2022-11-28T06:48:14.418Z,32.5
2022-11-28T06:49:21.405Z,30.6
2022-11-28T06:50:28.457Z,30.1
2022-11-28T06:51:36.042Z,32.3
2022-11-28T06:52:43.070Z,30.8
2022-11-28T06:53:50.064Z,30.5
2022-11-28T06:54:57.034Z,30.4
2022-11-28T06:56:04.158Z,31.9
2022-11-28T06:57:11.191Z,31.4
2022-11-28T06:58:18.374Z,30.8
2022-11-28T06:59:25.522Z,30.6
2022-11-28T07:00:32.781Z,29.8
2022-11-28T07:01:39.883Z,28.8
2022-11-28T07:02:46.876Z,29.3
2022-11-28T07:03:53.883Z,30.7
2022-11-28T07:05:00.910Z,27.9
2022-11-28T07:06:08.054Z,28
2022-11-28T07:07:16.594Z,29
2022-11-28T07:08:22.079Z,29.5
2022-11-28T07:09:29.025Z,29.3
2022-11-28T07:10:36.079Z,28.7
2022-11-28T07:11:43.186Z,29.4
2022-11-28T07:12:50.170Z,28.2
2022-11-28T07:13:57.234Z,28.7
2022-11-28T07:15:04.405Z,29.4
2022-11-28T07:16:11.774Z,27.4
2022-11-28T07:17:21.798Z,30.2
2022-11-28T07:18:28.969Z,28
2022-11-28T07:19:36.085Z,28.6
2022-11-28T07:20:43.195Z,28.8
2022-11-28T07:21:50.398Z,28.2
2022-11-28T07:22:57.378Z,29.3
2022-11-28T07:24:04.721Z,27.2
2022-11-28T07:25:11.685Z,29.2
2022-11-28T07:26:18.863Z,29.7
2022-11-28T07:27:26.128Z,29.4
2022-11-28T07:28:33.280Z,29.3
2022-11-28T07:29:40.584Z,29.8
2022-11-28T07:30:47.527Z,29
2022-11-28T07:31:54.718Z,29.3
2022-11-28T07:33:02.122Z,30.1
2022-11-28T07:34:09.282Z,30.7
2022-11-28T07:35:16.405Z,30.3
2022-11-28T07:36:23.595Z,29
2022-11-28T07:37:30.754Z,29
2022-11-28T07:38:37.913Z,30.6
2022-11-28T07:39:45.437Z,29.1
2022-11-28T07:40:52.250Z,30
2022-11-28T07:41:59.255Z,28.7
2022-11-28T07:43:06.354Z,30.6
2022-11-28T07:44:13.597Z,28.6
2022-11-28T07:45:20.658Z,30.5
2022-11-28T07:46:27.970Z,29.5
2022-11-28T07:47:35.040Z,29.1
2022-11-28T07:48:42.181Z,29.6
2022-11-28T07:49:49.391Z,29.9
2022-11-28T07:50:56.510Z,29
2022-11-28T07:52:03.522Z,29
2022-11-28T07:53:10.599Z,29.4
2022-11-28T07:54:17.706Z,29.5
2022-11-28T07:55:24.763Z,29.4
2022-11-28T07:56:57.010Z,30
2022-11-28T07:57:39.839Z,28.7
2022-11-28T07:58:46.914Z,30.9
2022-11-28T07:59:54.085Z,30.6
2022-11-28T08:01:01.005Z,30.6
2022-11-28T08:02:13.278Z,29.3
2022-11-28T08:03:20.293Z,30
2022-11-28T08:04:27.440Z,30.9
2022-11-28T08:05:34.470Z,29.5
2022-11-28T08:06:41.481Z,30.7
2022-11-28T08:07:48.642Z,29.1
2022-11-28T08:08:55.627Z,30.4
2022-11-28T08:10:02.753Z,29.4
2022-11-28T08:11:10.041Z,30.8
2022-11-28T08:12:16.997Z,29.4
2022-11-28T08:13:23.997Z,30
2022-11-28T08:14:31.023Z,31.2
2022-11-28T08:15:38.003Z,29.3
2022-11-28T08:16:45.168Z,30.1
2022-11-28T08:17:52.273Z,29.9
2022-11-28T08:18:59.240Z,29.6
2022-11-28T08:20:06.233Z,30.2
2022-11-28T08:21:13.392Z,30.2
2022-11-28T08:22:23.381Z,30.4
2022-11-28T08:23:30.393Z,31.7
2022-11-28T08:24:37.538Z,31.9
2022-11-28T08:25:44.674Z,29.1
2022-11-28T08:26:51.803Z,30.4
2022-11-28T08:27:58.780Z,31.5
2022-11-28T08:29:05.962Z,31.2
2022-11-28T08:30:13.004Z,31.8
2022-11-28T08:31:20.009Z,30.7
2022-11-28T08:32:28.029Z,32.3
2022-11-28T08:33:35.090Z,32.3
2022-11-28T08:34:42.330Z,32.1
2022-11-28T08:35:49.473Z,32.5
2022-11-28T08:36:56.369Z,32.8
2022-11-28T08:38:03.621Z,32.3
2022-11-28T08:39:25.971Z,31.9
2022-11-28T08:40:17.870Z,34.2
2022-11-28T08:41:24.979Z,33.1
2022-11-28T08:42:32.133Z,31.6
2022-11-28T08:43:39.443Z,33.5
2022-11-28T08:44:46.527Z,32.3
2022-11-28T08:45:53.731Z,32.3
2022-11-28T08:47:00.653Z,34
2022-11-28T08:48:07.672Z,32.7
2022-11-28T08:49:14.880Z,33
2022-11-28T08:50:22.117Z,32.9
2022-11-28T08:51:29.207Z,31.2
2022-11-28T08:52:36.266Z,33
2022-11-28T08:53:47.320Z,32.6
2022-11-28T08:54:50.607Z,31.8
2022-11-28T08:55:57.514Z,30.4
2022-11-28T08:57:04.863Z,34.3
2022-11-28T08:58:11.767Z,34.1
2022-11-28T08:59:19.023Z,32.8
2022-11-28T09:00:26.148Z,31.2
2022-11-28T09:01:33.368Z,33.9
2022-11-28T09:02:40.615Z,33.4
2022-11-28T09:03:47.930Z,33.8
2022-11-28T09:04:54.840Z,33.8
2022-11-28T09:06:01.732Z,33.9
2022-11-28T09:07:08.867Z,33.6
2022-11-28T09:08:15.915Z,32.5
2022-11-28T09:09:23.167Z,34.5
2022-11-28T09:10:30.263Z,34
2022-11-28T09:11:37.355Z,34.2
2022-11-28T09:12:44.361Z,33.1
2022-11-28T09:13:51.378Z,34.4
2022-11-28T09:14:58.527Z,32.9
2022-11-28T09:16:05.643Z,32.6
2022-11-28T09:17:12.770Z,33.4
2022-11-28T09:18:19.699Z,33
2022-11-28T09:19:26.716Z,33.1
2022-11-28T09:20:34.022Z,33
2022-11-28T09:21:41.299Z,30.4
2022-11-28T09:22:48.371Z,32.8
2022-11-28T09:23:55.420Z,31
2022-11-28T09:25:02.426Z,31.3
2022-11-28T09:26:09.822Z,33.9
2022-11-28T09:27:19.471Z,32.2
2022-11-28T09:28:26.636Z,32.4
2022-11-28T09:29:33.738Z,31.7
2022-11-28T09:30:40.859Z,32.5
2022-11-28T09:31:47.926Z,33.1
2022-11-28T09:32:55.157Z,31.6
2022-11-28T09:34:02.011Z,32.1
2022-11-28T09:35:09.044Z,33.6
2022-11-28T09:36:16.139Z,34.1
2022-11-28T09:37:23.095Z,32.7
2022-11-28T09:38:32.979Z,32
2022-11-28T09:39:57.248Z,32.7
2022-11-28T09:40:47.031Z,31.5
2022-11-28T09:41:54.018Z,31
2022-11-28T09:43:11.358Z,31.5
2022-11-28T09:44:23.561Z,30.4
2022-11-28T09:45:38.637Z,29.9
2022-11-28T09:46:45.979Z,28.9
2022-11-28T09:47:53.003Z,30.6
2022-11-28T09:49:08.033Z,28
2022-11-28T09:50:18.155Z,27.4
2022-11-28T09:51:35.963Z,29.6
2022-11-28T09:52:51.147Z,29.9
2022-11-28T09:54:08.672Z,28.8
2022-11-28T09:55:19.099Z,28.7
2022-11-28T09:56:33.895Z,28.2
2022-11-28T09:57:41.355Z,28.6
2022-11-28T09:58:51.314Z,26.9
2022-11-28T09:59:58.846Z,27
2022-11-28T10:01:06.274Z,26.6
2022-11-28T10:02:23.902Z,28.9
2022-11-28T10:03:37.184Z,27.4
2022-11-28T10:04:52.539Z,27.6
2022-11-28T10:06:02.654Z,27.7
2022-11-28T10:07:19.964Z,27.5
2022-11-28T10:08:31.964Z,28.5
2022-11-28T10:09:44.732Z,28.5
2022-11-28T10:11:01.835Z,28.9
2022-11-28T10:12:16.951Z,26.9
2022-11-28T10:13:36.520Z,26.8
2022-11-28T10:14:47.007Z,27.5
2022-11-28T10:16:04.764Z,27.9
2022-11-28T10:17:17.634Z,27.8
2022-11-28T10:18:32.756Z,26.5
2022-11-28T10:19:57.717Z,26.3
2022-11-28T10:20:54.640Z,27.3
2022-11-28T10:22:01.939Z,26.5
2022-11-28T10:23:08.990Z,26.4
2022-11-28T10:24:19.316Z,28.1
2022-11-28T10:25:27.455Z,27
2022-11-28T10:26:37.474Z,26.6
2022-11-28T10:27:44.298Z,25.6
2022-11-28T10:28:51.832Z,26.1
2022-11-28T10:29:59.154Z,26
2022-11-28T10:31:06.106Z,24.9
2022-11-28T10:32:22.162Z,26
2022-11-28T10:33:29.684Z,26.1
2022-11-28T10:34:44.611Z,25.8
2022-11-28T10:35:59.530Z,24.2
2022-11-28T10:37:06.890Z,26.4
2022-11-28T10:38:23.039Z,25.6
2022-11-28T10:39:29.912Z,25.9
2022-11-28T10:40:37.196Z,24.2
2022-11-28T10:41:49.702Z,25.3
2022-11-28T10:42:56.650Z,25.7
2022-11-28T10:44:07.126Z,25.3
2022-11-28T10:45:20.643Z,26.5
2022-11-28T10:46:33.143Z,25.8
2022-11-28T10:47:44.014Z,26.4
2022-11-28T10:48:58.826Z,25.1
2022-11-28T10:50:09.505Z,24.6
2022-11-28T10:51:19.000Z,24.4
2022-11-28T10:52:28.464Z,25.7
2022-11-28T10:53:38.887Z,26
2022-11-28T10:54:52.286Z,27.1
2022-11-28T10:56:11.155Z,25.1
2022-11-28T10:57:22.014Z,25.8
2022-11-28T10:58:34.200Z,25.9
2022-11-28T10:59:46.347Z,25.6
2022-11-28T11:00:58.453Z,26.6
2022-11-28T11:02:05.365Z,26.5
2022-11-28T11:03:20.604Z,26.7
2022-11-28T11:04:30.524Z,22.7
2022-11-28T11:05:37.660Z,21.3
2022-11-28T11:07:06.756Z,23.1
2022-11-28T11:07:59.855Z,22.8
2022-11-28T11:09:12.231Z,22.5
2022-11-28T11:10:19.481Z,21.7
2022-11-28T11:11:37.964Z,22.9
2022-11-28T11:12:45.178Z,21
2022-11-28T11:13:53.290Z,21.1
2022-11-28T11:15:05.344Z,20.8
2022-11-28T11:16:17.521Z,20.5
2022-11-28T11:17:24.454Z,21.1
2022-11-28T11:18:36.666Z,21.4
2022-11-28T11:19:46.226Z,21.2
2022-11-28T11:20:53.125Z,19.6
2022-11-28T11:22:10.479Z,18.5
2022-11-28T11:23:20.322Z,17.5
2022-11-28T11:24:27.488Z,18.6
2022-11-28T11:25:34.450Z,18.8
2022-11-28T11:26:41.379Z,18.9
2022-11-28T11:27:48.338Z,18.2
2022-11-28T11:28:55.276Z,16.6
2022-11-28T11:30:02.371Z,17.8
2022-11-28T11:31:19.621Z,17.2
2022-11-28T11:32:29.151Z,17.4
2022-11-28T11:33:36.218Z,17.3
2022-11-28T11:34:43.638Z,16.2
2022-11-28T11:35:50.774Z,19.9
2022-11-28T11:36:58.015Z,23.6
2022-11-28T11:38:15.363Z,26.8
2022-11-28T11:39:25.198Z,27.3
2022-11-28T11:40:32.166Z,27.4
2022-11-28T11:41:39.021Z,28.6
2022-11-28T11:42:45.971Z,28.7
2022-11-28T11:43:55.587Z,31.2
2022-11-28T11:45:12.871Z,30.7
2022-11-28T11:46:27.888Z,30.7
2022-11-28T11:47:34.879Z,30.2
2022-11-28T11:48:44.258Z,30.8
2022-11-28T11:49:51.188Z,31.3
2022-11-28T11:50:58.118Z,29.9
2022-11-28T11:52:05.050Z,28.2
2022-11-28T11:53:14.678Z,31
2022-11-28T11:54:21.624Z,29.9
2022-11-28T11:55:28.648Z,29.3
2022-11-28T11:56:35.574Z,28.7
2022-11-28T11:57:42.822Z,30.3
2022-11-28T11:58:50.318Z,28
2022-11-28T11:59:57.355Z,28.5
2022-11-28T12:01:13.364Z,29.4
2022-11-28T12:02:20.375Z,30.2
2022-11-28T12:03:32.603Z,28.2
2022-11-28T12:04:47.189Z,27.9
2022-11-28T12:06:13.027Z,30.8
2022-11-28T12:06:57.505Z,31.4
2022-11-28T12:08:04.561Z,31.7
2022-11-28T12:09:21.782Z,30.4
2022-11-28T12:10:39.144Z,30.8
2022-11-28T12:11:47.167Z,30.7
2022-11-28T12:12:52.983Z,29.5
2022-11-28T12:13:59.876Z,28.8
2022-11-28T12:15:06.818Z,29.1
2022-11-28T12:16:19.053Z,29.6
2022-11-28T12:17:48.163Z,28.6
2022-11-28T12:18:48.269Z,29.6
2022-11-28T12:20:03.409Z,30.4
2022-11-28T12:21:20.911Z,28.5
2022-11-28T12:22:38.327Z,29.5
2022-11-28T12:23:53.904Z,29.6
2022-11-28T12:25:05.999Z,28.9
2022-11-28T12:26:21.016Z,27.9
2022-11-28T12:27:30.601Z,29.5
2022-11-28T12:28:37.540Z,27.4
2022-11-28T12:29:50.674Z,27.7
2022-11-28T12:31:02.742Z,28.3
2022-11-28T12:32:15.099Z,26.7
2022-11-28T12:33:28.201Z,27.4
2022-11-28T12:34:43.090Z,26.4
2022-11-28T12:35:50.122Z,26.1
2022-11-28T12:37:02.702Z,20
2022-11-28T12:38:11.043Z,12.2
2022-11-28T12:39:21.627Z,10.5
2022-11-28T12:40:33.707Z,8.9
2022-11-28T12:41:45.736Z,9.4
2022-11-28T12:43:00.880Z,8.3
2022-11-28T12:44:13.078Z,9.4
2022-11-28T12:45:22.521Z,9.8
2022-11-28T12:46:34.611Z,9.1
2022-11-28T12:47:44.382Z,8.4
2022-11-28T12:48:56.711Z,8
2022-11-28T12:50:11.782Z,8.3
2022-11-28T12:51:29.087Z,9
2022-11-28T12:52:46.420Z,8.6
2022-11-28T12:54:03.770Z,8.4
2022-11-28T12:55:21.654Z,8.6
2022-11-28T12:56:36.479Z,8.6
2022-11-28T12:57:48.579Z,8.6
2022-11-28T12:59:00.646Z,7.5
2022-11-28T13:00:12.899Z,7.7
2022-11-28T13:01:25.196Z,7.2
2022-11-28T13:02:32.633Z,7.6
2022-11-28T13:03:42.415Z,7.6
2022-11-28T13:04:59.858Z,7.6
2022-11-28T13:06:09.945Z,7.7
2022-11-28T13:07:19.619Z,7.7
2022-11-28T13:08:34.790Z,7.7
2022-11-28T13:09:52.229Z,8
2022-11-28T13:11:04.450Z,7.1
2022-11-28T13:12:21.698Z,8.4
2022-11-28T13:13:37.321Z,8.1
2022-11-28T13:14:46.991Z,7.6
2022-11-28T13:15:59.020Z,7.8
2022-11-28T13:17:17.106Z,7.7
2022-11-28T13:18:24.090Z,7.7
2022-11-28T13:19:41.318Z,7.9
2022-11-28T13:20:53.418Z,8.2
2022-11-28T13:22:05.522Z,8.1
2022-11-28T13:23:17.648Z,8.9
2022-11-28T13:24:27.470Z,9.2
2022-11-28T13:25:44.767Z,9.2
2022-11-28T13:26:57.866Z,8.3
2022-11-28T13:28:12.868Z,8.8
2022-11-28T13:29:25.059Z,8.5
2022-11-28T13:30:37.901Z,8.6
2022-11-28T13:31:44.964Z,8.2
2022-11-28T13:32:57.207Z,9
2022-11-28T13:34:07.866Z,8.9
2022-11-28T13:35:15.271Z,9.2
2022-11-28T13:39:00.179Z,8.9
2022-11-28T13:39:59.026Z,8.8
2022-11-28T13:41:28.720Z,9.6
2022-11-28T13:42:52.724Z,9.8
2022-11-28T13:43:33.335Z,9
2022-11-28T13:44:50.672Z,9.1
2022-11-28T13:47:45.933Z,8.6
2022-11-28T13:49:21.741Z,8.4
2022-11-28T13:50:00.188Z,8.6
2022-11-28T13:51:19.931Z,8.6
2022-11-28T13:52:24.403Z,7.5
2022-11-28T13:53:31.310Z,7.6
2022-11-28T13:54:38.305Z,7.5
2022-11-28T13:55:46.205Z,8
2022-11-28T13:56:53.278Z,7.4
2022-11-28T13:58:10.478Z,8
2022-11-28T13:59:20.461Z,8
2022-11-28T14:00:27.787Z,8
2022-11-28T14:01:34.563Z,8.7
2022-11-28T14:02:46.819Z,8.9
2022-11-28T14:03:56.395Z,9
2022-11-28T14:05:12.490Z,7.9
2022-11-28T14:06:20.236Z,8.5
2022-11-28T14:07:35.562Z,8.5
2022-11-28T14:08:42.463Z,7.9
2022-11-28T14:09:49.393Z,8
2022-11-28T14:11:06.678Z,8.8
2022-11-28T14:12:18.945Z,8.6
2022-11-28T14:13:25.906Z,9.4
2022-11-28T14:14:38.062Z,8.9
2022-11-28T14:15:55.818Z,8.7
2022-11-28T14:17:05.582Z,8.9
2022-11-28T14:18:39.532Z,8.9
2022-11-28T14:19:30.078Z,9.3
2022-11-28T14:20:46.854Z,9.3
2022-11-28T14:21:56.561Z,9
2022-11-28T14:23:12.188Z,9.3
2022-11-28T14:24:24.444Z,9.3
2022-11-28T14:25:41.805Z,9.9
2022-11-28T14:26:49.021Z,9.4
2022-11-28T14:28:04.142Z,10.2
2022-11-28T14:29:11.213Z,9.7
2022-11-28T14:30:26.486Z,9.5
2022-11-28T14:31:34.168Z,9.5
2022-11-28T14:32:41.433Z,9.5
2022-11-28T14:33:48.404Z,9.1
2022-11-28T14:34:55.585Z,9.8
2022-11-28T14:36:03.060Z,9.5
2022-11-28T14:37:10.288Z,9.7
2022-11-28T14:38:22.937Z,10
2022-11-28T14:39:35.289Z,8.9
2022-11-28T14:40:42.421Z,10
2022-11-28T14:42:00.029Z,9
2022-11-28T14:43:10.004Z,10
2022-11-28T14:44:22.221Z,10.6
2022-11-28T14:45:34.409Z,9.7
2022-11-28T14:46:46.581Z,9.6
2022-11-28T14:48:04.104Z,10.4
2022-11-28T14:49:11.200Z,10.2
2022-11-28T14:50:18.308Z,10.8
2022-11-28T14:51:25.142Z,10.1
2022-11-28T14:52:42.433Z,10.8
2022-11-28T14:53:52.288Z,10.6
2022-11-28T14:54:59.345Z,10.1
2022-11-28T14:56:14.269Z,10.7
2022-11-28T14:57:23.693Z,9.8
2022-11-28T14:58:30.488Z,10.2
2022-11-28T14:59:37.368Z,10.1
2022-11-28T15:00:44.224Z,11.6
2022-11-28T15:01:54.604Z,11.2
2022-11-28T15:03:09.306Z,11.7
2022-11-28T15:04:26.500Z,13.3
2022-11-28T15:05:41.197Z,13.8
2022-11-28T15:06:53.825Z,14.5
2022-11-28T15:08:01.124Z,13.7
2022-11-28T15:09:18.479Z,14.7
2022-11-28T15:10:33.292Z,13.1
2022-11-28T15:11:48.196Z,13.3
2022-11-28T15:13:00.245Z,12.3
2022-11-28T15:14:12.576Z,12.6
2022-11-28T15:15:25.433Z,12.1
2022-11-28T15:16:32.941Z,11.4
2022-11-28T15:17:39.817Z,11.9
2022-11-28T15:18:47.281Z,12.7
2022-11-28T15:19:54.097Z,12.5
2022-11-28T15:21:00.938Z,12.4
2022-11-28T15:22:08.021Z,13.3
2022-11-28T15:23:25.289Z,13.6
2022-11-28T15:24:32.244Z,12.9
2022-11-28T15:25:40.039Z,13
2022-11-28T15:26:47.404Z,13
2022-11-28T15:27:57.071Z,12.8
2022-11-28T15:29:14.517Z,13.5
2022-11-28T15:30:28.408Z,12.6
2022-11-28T15:31:37.088Z,12.6
2022-11-28T15:32:44.481Z,11.7
2022-11-28T15:33:51.380Z,11.9
2022-11-28T15:34:58.854Z,12.1
2022-11-28T15:36:06.153Z,11.7